Myra Eckstein — WDF9473 — position and weather

sailwx.info

Track history (hours):
 
Tides and Currents Weather Stations Pressure Air Temp Water Temp Dewpoint Dewpoint Depression Visibility Wind Speed Wind Dir Waves Ship Positions

Myra Eckstein

Owner: Marquette Transportation Co. LLC, Paducah, KY. More information available from US FCC via Universal Licensing System and Coast Guard Vessel Documentation Center.

Last reported at 2014-Sep-28 09:16 UTC. Time now 2014-Oct-01 16:27 UTC.
Position N 30°06' W 090°55'.

Length 47 m; draft 3.5 m.

Type: Towing. MMSI: 367505510.

Date/timePositionNaut miles runAvg speedWind from/ knotsBaromVisibWave heightAir tempDewpointWater temp
2014-Sep-28 09:16N 30°06' W 090°55'2 0.9
2014-Sep-28 07:12N 30°04' W 090°54'0 0.0
2014-Sep-28 06:23N 30°04' W 090°54'0 0.0
2014-Sep-28 05:31N 30°04' W 090°54'3 0.9
2014-Sep-28 02:18N 30°04' W 090°51'0 0.0
2014-Sep-27 23:31N 30°04' W 090°51'4 3.9
2014-Sep-27 22:32N 29°60' W 090°50'4 3.5
2014-Sep-27 21:26N 30°01' W 090°46'4 4.3
2014-Sep-27 20:32N 30°02' W 090°41'3 2.9
2014-Sep-27 19:33N 30°03' W 090°38'0 0.0
2014-Sep-27 18:33N 30°03' W 090°38'0 0.0
2014-Sep-27 17:33N 30°03' W 090°38'2 1.9
2014-Sep-27 16:33N 30°03' W 090°36'5 4.5
2014-Sep-27 15:33N 30°03' W 090°31'0 0.2
2014-Sep-27 14:25N 30°03' W 090°31'0 0.0
2014-Sep-27 13:31N 30°03' W 090°31'0 0.0
2014-Sep-27 12:33N 30°03' W 090°31'0 0.0
2014-Sep-27 11:33N 30°03' W 090°31'0 0.0
2014-Sep-27 10:33N 30°03' W 090°31'0 0.0
2014-Sep-27 09:33N 30°03' W 090°31'1 1.1
2014-Sep-27 08:33N 30°03' W 090°29'2 2.3
2014-Sep-27 07:33N 30°01' W 090°28'0 0.0
2014-Sep-27 06:33N 30°01' W 090°28'2 1.6
2014-Sep-27 05:33N 29°60' W 090°27'4 3.8
2014-Sep-27 04:33N 29°57' W 090°24'1 1.2
2014-Sep-27 03:33N 29°57' W 090°23'0 0.0
2014-Sep-27 02:33N 29°57' W 090°23'0 0.0
2014-Sep-27 00:27N 29°57' W 090°23'0 0.0
2014-Sep-26 23:31N 29°57' W 090°23'1 0.6
2014-Sep-26 22:33N 29°56' W 090°22'8 0.2
2014-Sep-25 12:33N 30°02' W 090°28'0 0.0
2014-Sep-25 11:33N 30°02' W 090°28'0 0.0
2014-Sep-25 10:33N 30°02' W 090°28'0 0.0
2014-Sep-25 09:33N 30°02' W 090°28'0 0.0
2014-Sep-25 08:33N 30°02' W 090°28'0 0.0
2014-Sep-25 07:33N 30°02' W 090°28'0 0.1
2014-Sep-25 06:33N 30°02' W 090°28'5 5.3
2014-Sep-25 05:33N 30°03' W 090°34'4 3.7
2014-Sep-25 04:33N 30°03' W 090°38'0 0.0
2014-Sep-25 03:33N 30°03' W 090°38'0 0.0
2014-Sep-25 02:33N 30°03' W 090°38'0 0.0
2014-Sep-25 01:33N 30°03' W 090°38'0 0.0
2014-Sep-25 00:33N 30°03' W 090°38'0 0.0
2014-Sep-24 23:33N 30°03' W 090°38'11 0.8
2014-Sep-24 09:33N 30°04' W 090°51'0 0.0
2014-Sep-24 04:21N 30°04' W 090°51'0 0.0
2014-Sep-24 03:09N 30°04' W 090°51'0 0.0
2014-Sep-24 02:33N 30°04' W 090°51'  
Track history (hours):
 
Tides and Currents Weather Stations Pressure Air Temp Water Temp Dewpoint Dewpoint Depression Visibility Wind Speed Wind Dir Waves Ship Positions

Myra Eckstein

Owner: Marquette Transportation Co. LLC, Paducah, KY. More information available from US FCC via Universal Licensing System and Coast Guard Vessel Documentation Center.

Last reported at 2014-Sep-28 09:16 UTC. Time now 2014-Oct-01 16:27 UTC.
Position N 30°06' W 090°55'.

Length 47 m; draft 3.5 m.

Type: Towing. MMSI: 367505510.

Date/timePositionNaut miles runAvg speedWind from/ knotsBaromVisibWave heightAir tempDewpointWater temp
2014-Sep-28 09:16N 30°06' W 090°55'2 0.9
2014-Sep-28 07:12N 30°04' W 090°54'0 0.0
2014-Sep-28 06:23N 30°04' W 090°54'0 0.0
2014-Sep-28 05:31N 30°04' W 090°54'3 0.9
2014-Sep-28 02:18N 30°04' W 090°51'0 0.0
2014-Sep-27 23:31N 30°04' W 090°51'4 3.9
2014-Sep-27 22:32N 29°60' W 090°50'4 3.5
2014-Sep-27 21:26N 30°01' W 090°46'4 4.3
2014-Sep-27 20:32N 30°02' W 090°41'3 2.9
2014-Sep-27 19:33N 30°03' W 090°38'0 0.0
2014-Sep-27 18:33N 30°03' W 090°38'0 0.0
2014-Sep-27 17:33N 30°03' W 090°38'2 1.9
2014-Sep-27 16:33N 30°03' W 090°36'5 4.5
2014-Sep-27 15:33N 30°03' W 090°31'0 0.2
2014-Sep-27 14:25N 30°03' W 090°31'0 0.0
2014-Sep-27 13:31N 30°03' W 090°31'0 0.0
2014-Sep-27 12:33N 30°03' W 090°31'0 0.0
2014-Sep-27 11:33N 30°03' W 090°31'0 0.0
2014-Sep-27 10:33N 30°03' W 090°31'0 0.0
2014-Sep-27 09:33N 30°03' W 090°31'1 1.1
2014-Sep-27 08:33N 30°03' W 090°29'2 2.3
2014-Sep-27 07:33N 30°01' W 090°28'0 0.0
2014-Sep-27 06:33N 30°01' W 090°28'2 1.6
2014-Sep-27 05:33N 29°60' W 090°27'4 3.8
2014-Sep-27 04:33N 29°57' W 090°24'1 1.2
2014-Sep-27 03:33N 29°57' W 090°23'0 0.0
2014-Sep-27 02:33N 29°57' W 090°23'0 0.0
2014-Sep-27 00:27N 29°57' W 090°23'0 0.0
2014-Sep-26 23:31N 29°57' W 090°23'1 0.6
2014-Sep-26 22:33N 29°56' W 090°22'8 0.2
2014-Sep-25 12:33N 30°02' W 090°28'0 0.0
2014-Sep-25 11:33N 30°02' W 090°28'0 0.0
2014-Sep-25 10:33N 30°02' W 090°28'0 0.0
2014-Sep-25 09:33N 30°02' W 090°28'0 0.0
2014-Sep-25 08:33N 30°02' W 090°28'0 0.0
2014-Sep-25 07:33N 30°02' W 090°28'0 0.1
2014-Sep-25 06:33N 30°02' W 090°28'5 5.3
2014-Sep-25 05:33N 30°03' W 090°34'4 3.7
2014-Sep-25 04:33N 30°03' W 090°38'0 0.0
2014-Sep-25 03:33N 30°03' W 090°38'0 0.0
2014-Sep-25 02:33N 30°03' W 090°38'0 0.0
2014-Sep-25 01:33N 30°03' W 090°38'0 0.0
2014-Sep-25 00:33N 30°03' W 090°38'0 0.0
2014-Sep-24 23:33N 30°03' W 090°38'11 0.8
2014-Sep-24 09:33N 30°04' W 090°51'0 0.0
2014-Sep-24 04:21N 30°04' W 090°51'0 0.0
2014-Sep-24 03:09N 30°04' W 090°51'0 0.0
2014-Sep-24 02:33N 30°04' W 090°51'  

Dump ship's entire track history